createdAt,value
2023-02-26T00:01:27.402Z,60.77
2023-02-26T00:03:58.371Z,60.58
2023-02-26T00:06:26.988Z,60.96
2023-02-26T00:08:54.575Z,60.91
2023-02-26T00:11:22.480Z,60.67
2023-02-26T00:13:49.475Z,60.95
2023-02-26T00:16:31.085Z,59.89
2023-02-26T00:19:01.778Z,59.86
2023-02-26T00:21:30.141Z,60.11
2023-02-26T00:23:58.242Z,59.85
2023-02-26T00:26:27.607Z,59.84
2023-02-26T00:28:55.532Z,60.47
2023-02-26T00:31:26.228Z,59.86
2023-02-26T00:33:55.527Z,61.13
2023-02-26T00:37:02.912Z,60.90
2023-02-26T00:40:31.604Z,61.24
2023-02-26T00:42:58.383Z,61.44
2023-02-26T00:45:25.394Z,61.12
2023-02-26T00:48:06.994Z,60.83
2023-02-26T00:50:35.155Z,59.83
2023-02-26T00:53:10.378Z,60.11
2023-02-26T00:55:36.870Z,59.87
2023-02-26T00:58:03.408Z,60.41
2023-02-26T01:00:30.279Z,59.98
2023-02-26T01:02:58.464Z,60.62
2023-02-26T01:05:25.644Z,61.27
2023-02-26T01:08:05.337Z,61.32
2023-02-26T01:10:32.469Z,60.74
2023-02-26T01:12:59.349Z,61.20
2023-02-26T01:15:26.333Z,61.10
2023-02-26T01:18:09.926Z,60.38
2023-02-26T01:20:46.508Z,60.23
2023-02-26T01:23:24.283Z,60.29
2023-02-26T01:25:58.281Z,59.92
2023-02-26T01:28:26.505Z,60.11
2023-02-26T01:31:02.472Z,60.28
2023-02-26T01:34:00.878Z,59.74
2023-02-26T01:36:37.425Z,60.01
2023-02-26T01:39:19.484Z,60.35
2023-02-26T01:42:19.808Z,60.27
2023-02-26T01:45:01.251Z,59.58
2023-02-26T01:47:43.051Z,60.12
2023-02-26T01:50:25.722Z,59.75
2023-02-26T01:52:52.137Z,60.56
2023-02-26T01:55:28.624Z,59.77
2023-02-26T01:58:00.979Z,59.91
2023-02-26T02:00:28.933Z,60.09
2023-02-26T02:02:55.701Z,60.14
2023-02-26T02:05:55.344Z,59.16
2023-02-26T02:08:22.628Z,59.41
2023-02-26T02:10:52.870Z,59.83
2023-02-26T02:13:29.091Z,59.88
2023-02-26T02:16:26.749Z,59.43
2023-02-26T02:19:02.177Z,60.02
2023-02-26T02:21:44.148Z,60.05
2023-02-26T02:24:52.721Z,59.74
2023-02-26T02:27:34.074Z,59.90
2023-02-26T02:30:31.964Z,60.21
2023-02-26T02:33:06.400Z,60.39
2023-02-26T02:35:44.660Z,60.07
2023-02-26T02:38:21.512Z,60.06
2023-02-26T02:40:58.295Z,60.47
2023-02-26T02:43:32.388Z,60.50
2023-02-26T02:46:29.442Z,60.36
2023-02-26T02:49:04.848Z,60.39
2023-02-26T02:51:54.275Z,59.61
2023-02-26T02:54:41.873Z,59.84
2023-02-26T02:57:19.939Z,60.74
2023-02-26T02:59:59.258Z,60.34
2023-02-26T03:02:36.758Z,60.62
2023-02-26T03:05:03.597Z,60.63
2023-02-26T03:07:48.433Z,60.18
2023-02-26T03:10:16.709Z,60.62
2023-02-26T03:12:43.221Z,60.82
2023-02-26T03:15:10.968Z,61.59
2023-02-26T03:18:06.367Z,61.26
2023-02-26T03:20:45.080Z,60.87
2023-02-26T03:23:23.355Z,60.99
2023-02-26T03:26:11.990Z,61.89
2023-02-26T03:28:48.429Z,61.54
2023-02-26T03:31:30.679Z,61.62
2023-02-26T03:34:13.691Z,60.76
2023-02-26T03:36:51.520Z,60.99
2023-02-26T03:39:32.012Z,60.59
2023-02-26T03:42:09.767Z,60.69
2023-02-26T03:45:09.366Z,60.01
2023-02-26T03:47:45.630Z,59.95
2023-02-26T03:50:40.006Z,59.33
2023-02-26T03:53:13.502Z,60.13
2023-02-26T03:55:49.200Z,60.08
2023-02-26T03:58:16.417Z,60.31
2023-02-26T04:00:50.157Z,60.20
2023-02-26T04:03:34.460Z,60.13
2023-02-26T04:06:03.559Z,59.70
2023-02-26T04:08:32.446Z,59.48
2023-02-26T04:11:08.904Z,60.05
2023-02-26T04:13:35.394Z,60.11
2023-02-26T04:16:02.230Z,60.06
2023-02-26T04:18:28.731Z,59.98
2023-02-26T04:20:55.178Z,60.28
2023-02-26T04:23:21.797Z,60.32
2023-02-26T04:25:48.354Z,60.06
2023-02-26T04:28:14.929Z,59.71
2023-02-26T04:30:41.816Z,60.27
2023-02-26T04:33:08.300Z,59.47
2023-02-26T04:35:35.137Z,59.31
2023-02-26T04:38:01.589Z,59.26
2023-02-26T04:40:28.076Z,59.50
2023-02-26T04:42:54.574Z,59.59
2023-02-26T04:45:21.090Z,59.20
2023-02-26T04:47:47.567Z,59.13
2023-02-26T04:50:14.581Z,59.54
2023-02-26T04:52:41.098Z,59.96
2023-02-26T04:55:08.547Z,59.42
2023-02-26T04:57:35.142Z,59.04
2023-02-26T05:00:01.690Z,59.30
2023-02-26T05:02:28.226Z,59.19
2023-02-26T05:04:54.690Z,59.23
2023-02-26T05:07:21.150Z,59.91
2023-02-26T05:09:47.599Z,60.08
2023-02-26T05:12:24.123Z,59.90
2023-02-26T05:14:50.667Z,60.09
2023-02-26T05:17:17.142Z,60.56
2023-02-26T05:19:43.584Z,60.62
2023-02-26T05:22:10.096Z,60.40
2023-02-26T05:24:36.648Z,60.48
2023-02-26T05:27:10.662Z,60.13
2023-02-26T05:29:46.104Z,60.03
2023-02-26T05:32:12.548Z,60.12
2023-02-26T05:34:39.067Z,60.63
2023-02-26T05:37:05.567Z,60.90
2023-02-26T05:39:32.171Z,60.89
2023-02-26T05:41:58.993Z,60.94
2023-02-26T05:44:25.546Z,60.23
2023-02-26T05:46:52.116Z,60.08
2023-02-26T05:49:18.589Z,60.27
2023-02-26T05:51:45.239Z,60.39
2023-02-26T05:54:11.822Z,60.50
2023-02-26T05:56:38.316Z,60.71
2023-02-26T05:59:05.098Z,60.34
2023-02-26T06:01:31.646Z,60.58
2023-02-26T06:04:01.128Z,60.48
2023-02-26T06:06:27.835Z,60.24
2023-02-26T06:08:54.551Z,60.57
2023-02-26T06:11:21.110Z,60.88
2023-02-26T06:13:47.648Z,60.02
2023-02-26T06:16:14.267Z,60.42
2023-02-26T06:18:40.811Z,60.55
2023-02-26T06:21:07.557Z,60.75
2023-02-26T06:23:36.940Z,60.62
2023-02-26T06:26:05.045Z,60.36
2023-02-26T06:28:32.708Z,60.24
2023-02-26T06:30:59.218Z,60.10
2023-02-26T06:33:30.879Z,59.75
2023-02-26T06:35:59.253Z,59.06
2023-02-26T06:38:27.075Z,58.55
2023-02-26T06:40:53.650Z,58.98
2023-02-26T06:43:20.496Z,59.44
2023-02-26T06:45:47.425Z,59.62
2023-02-26T06:48:14.046Z,59.93
2023-02-26T06:50:40.549Z,59.63
2023-02-26T06:53:09.343Z,60.02
2023-02-26T06:55:35.829Z,60.05
2023-02-26T06:58:02.326Z,61.27
2023-02-26T07:00:28.821Z,61.44
2023-02-26T07:02:55.480Z,61.27
2023-02-26T07:05:22.249Z,60.50
2023-02-26T07:07:48.752Z,60.41
2023-02-26T07:10:18.299Z,60.96
2023-02-26T07:12:44.858Z,61.19
2023-02-26T07:15:14.633Z,60.41
2023-02-26T07:17:41.171Z,60.36
2023-02-26T07:20:10.221Z,60.40
2023-02-26T07:22:38.248Z,60.50
2023-02-26T07:25:07.126Z,60.74
2023-02-26T07:27:34.024Z,60.34
2023-02-26T07:30:01.330Z,60.33
2023-02-26T07:32:28.197Z,60.16
2023-02-26T07:34:54.696Z,60.49
2023-02-26T07:37:21.264Z,61.76
2023-02-26T07:39:49.577Z,60.64
2023-02-26T07:42:16.478Z,60.34
2023-02-26T07:44:43.352Z,59.93
2023-02-26T07:47:10.942Z,60.26
2023-02-26T07:49:37.484Z,60.76
2023-02-26T07:52:20.509Z,60.15
2023-02-26T07:54:55.926Z,59.63
2023-02-26T07:57:36.785Z,59.45
2023-02-26T08:00:06.497Z,59.57
2023-02-26T08:02:34.131Z,60.27
2023-02-26T08:05:03.624Z,59.94
2023-02-26T08:07:30.133Z,60.16
2023-02-26T08:09:56.653Z,59.66
2023-02-26T08:12:23.120Z,59.86
2023-02-26T08:14:49.602Z,59.85
2023-02-26T08:17:16.134Z,59.79
2023-02-26T08:19:48.304Z,59.34
2023-02-26T08:22:14.733Z,59.18
2023-02-26T08:24:41.431Z,58.81
2023-02-26T08:27:08.074Z,58.43
2023-02-26T08:29:34.581Z,58.42
2023-02-26T08:32:01.100Z,58.28
2023-02-26T08:34:27.663Z,58.62
2023-02-26T08:36:54.183Z,58.23
2023-02-26T08:39:20.666Z,57.99
2023-02-26T08:41:47.137Z,58.29
2023-02-26T08:44:13.624Z,58.14
2023-02-26T08:46:40.312Z,57.17
2023-02-26T08:49:07.370Z,57.65
2023-02-26T08:51:33.850Z,57.51
2023-02-26T08:54:00.426Z,56.13
2023-02-26T08:56:27.284Z,56.91
2023-02-26T08:58:53.923Z,57.10
2023-02-26T09:01:20.401Z,56.70
2023-02-26T09:03:46.941Z,57.09
2023-02-26T09:06:13.464Z,56.17
2023-02-26T09:08:39.986Z,55.53
2023-02-26T09:11:06.577Z,55.34
2023-02-26T09:13:33.091Z,54.75
2023-02-26T09:15:59.585Z,54.08
2023-02-26T09:18:26.181Z,55.14
2023-02-26T09:20:52.702Z,55.81
2023-02-26T09:23:19.234Z,56.81
2023-02-26T09:25:46.135Z,56.65
2023-02-26T09:28:12.749Z,55.90
2023-02-26T09:30:39.335Z,56.33
2023-02-26T09:33:05.892Z,56.72
2023-02-26T09:35:32.430Z,56.63
2023-02-26T09:37:58.991Z,56.65
2023-02-26T09:41:00.273Z,55.62
2023-02-26T09:44:25.548Z,55.96
2023-02-26T09:47:17.734Z,56.14
2023-02-26T09:50:07.190Z,52.57
2023-02-26T09:52:46.911Z,53.27
2023-02-26T09:55:31.331Z,52.27
2023-02-26T09:58:04.969Z,54.00
2023-02-26T10:00:58.589Z,54.16
2023-02-26T10:03:57.330Z,54.01
2023-02-26T10:06:34.901Z,54.55
2023-02-26T10:09:32.776Z,53.43
2023-02-26T10:12:10.551Z,53.13
2023-02-26T10:14:56.678Z,53.51
2023-02-26T10:17:42.180Z,52.71
2023-02-26T10:20:32.533Z,52.71
2023-02-26T10:23:19.941Z,49.93
2023-02-26T10:25:53.899Z,50.03
2023-02-26T10:29:02.622Z,50.70
2023-02-26T10:31:59.384Z,51.46
2023-02-26T10:34:42.056Z,51.70
2023-02-26T10:37:38.865Z,50.96
2023-02-26T10:40:14.446Z,51.83
2023-02-26T10:43:00.845Z,50.82
2023-02-26T10:45:58.507Z,50.64
2023-02-26T10:48:39.032Z,50.59
2023-02-26T10:51:15.635Z,50.64
2023-02-26T10:53:46.271Z,47.31
2023-02-26T10:56:22.470Z,50.51
2023-02-26T10:58:50.709Z,49.39
2023-02-26T11:01:20.785Z,45.33
2023-02-26T11:03:54.473Z,46.30
2023-02-26T11:06:31.548Z,45.54
2023-02-26T11:09:02.352Z,46.46
2023-02-26T11:11:50.879Z,45.32
2023-02-26T11:14:17.757Z,46.78
2023-02-26T11:16:53.477Z,45.72
2023-02-26T11:19:35.477Z,46.55
2023-02-26T11:22:05.352Z,46.27
2023-02-26T11:24:40.385Z,45.41
2023-02-26T11:27:19.723Z,44.86
2023-02-26T11:29:57.140Z,41.87
2023-02-26T11:32:33.125Z,43.48
2023-02-26T11:34:59.701Z,43.91
2023-02-26T11:37:38.908Z,44.69
2023-02-26T11:40:37.946Z,43.73
2023-02-26T11:43:23.587Z,43.64
2023-02-26T11:46:05.517Z,44.25
2023-02-26T11:48:40.895Z,44.56
2023-02-26T11:51:14.260Z,45.47
2023-02-26T11:54:01.365Z,44.74
2023-02-26T11:56:50.871Z,43.23
2023-02-26T11:59:24.285Z,44.12
2023-02-26T12:01:53.477Z,43.65
2023-02-26T12:04:27.936Z,45.27
2023-02-26T12:06:56.290Z,44.88
2023-02-26T12:09:26.387Z,45.76
2023-02-26T12:12:16.232Z,45.33
2023-02-26T12:15:13.981Z,45.73
2023-02-26T12:18:07.064Z,45.43
2023-02-26T12:20:58.141Z,45.32
2023-02-26T12:23:51.876Z,43.40
2023-02-26T12:26:31.718Z,44.61
2023-02-26T12:29:47.190Z,43.92
2023-02-26T12:32:44.463Z,42.85
2023-02-26T12:35:37.778Z,41.90
2023-02-26T12:38:22.766Z,43.73
2023-02-26T12:41:25.087Z,43.87
2023-02-26T12:44:11.312Z,45.11
2023-02-26T12:47:10.909Z,45.27
2023-02-26T12:50:07.044Z,44.07
2023-02-26T12:53:11.322Z,45.28
2023-02-26T12:55:53.234Z,45.20
2023-02-26T12:58:53.727Z,45.41
2023-02-26T13:02:01.409Z,44.72
2023-02-26T13:05:04.574Z,44.12
2023-02-26T13:07:58.659Z,45.32
2023-02-26T13:10:43.195Z,45.24
2023-02-26T13:13:35.814Z,45.76
2023-02-26T13:16:21.646Z,44.59
2023-02-26T13:19:13.371Z,45.17
2023-02-26T13:21:48.754Z,45.29
2023-02-26T13:26:59.057Z,45.89
2023-02-26T13:29:35.653Z,45.19
2023-02-26T13:32:14.006Z,42.28
2023-02-26T13:35:33.344Z,43.39
2023-02-26T13:38:07.281Z,44.86
2023-02-26T13:40:58.335Z,45.36
2023-02-26T13:43:57.552Z,44.38
2023-02-26T13:46:46.420Z,45.07
2023-02-26T13:49:34.535Z,43.43
2023-02-26T13:52:01.385Z,44.06
2023-02-26T13:54:27.902Z,43.73
2023-02-26T13:57:06.941Z,43.95
2023-02-26T13:59:45.287Z,42.77
2023-02-26T14:02:18.071Z,39.87
2023-02-26T14:04:59.574Z,42.73
2023-02-26T14:07:55.881Z,43.53
2023-02-26T14:10:33.202Z,43.47
2023-02-26T14:13:15.258Z,44.01
2023-02-26T14:16:13.274Z,43.94
2023-02-26T14:18:39.685Z,41.75
2023-02-26T14:21:28.090Z,41.04
2023-02-26T14:24:02.086Z,42.32
2023-02-26T14:26:36.802Z,42.72
2023-02-26T14:29:06.400Z,43.90
2023-02-26T14:31:51.129Z,43.74
2023-02-26T14:34:29.753Z,43.54
2023-02-26T14:37:06.946Z,43.67
2023-02-26T14:39:42.993Z,43.32
2023-02-26T14:42:21.406Z,42.56
2023-02-26T14:45:18.712Z,42.97
2023-02-26T14:47:48.484Z,43.25
2023-02-26T14:50:20.990Z,42.76
2023-02-26T14:53:24.089Z,42.49
2023-02-26T14:56:04.615Z,43.38
2023-02-26T14:58:48.840Z,42.92
2023-02-26T15:01:30.363Z,43.40
2023-02-26T15:04:16.964Z,43.10
2023-02-26T15:06:52.476Z,43.71
2023-02-26T15:10:04.213Z,44.02
2023-02-26T15:13:00.169Z,44.11
2023-02-26T15:16:11.856Z,43.91
2023-02-26T15:19:15.532Z,43.68
2023-02-26T15:22:11.956Z,43.71
2023-02-26T15:24:40.562Z,43.43
2023-02-26T15:27:15.243Z,43.38
2023-02-26T15:29:42.807Z,43.73
2023-02-26T15:32:26.465Z,41.30
2023-02-26T15:35:03.395Z,41.37
2023-02-26T15:37:35.385Z,41.15
2023-02-26T15:40:05.759Z,41.63
2023-02-26T15:42:39.051Z,40.79
2023-02-26T15:45:35.814Z,40.93
2023-02-26T15:48:07.986Z,40.76
2023-02-26T15:50:43.334Z,41.60
2023-02-26T15:53:19.295Z,42.22
2023-02-26T15:55:53.589Z,41.89
2023-02-26T15:58:34.080Z,42.79
2023-02-26T16:01:03.040Z,42.86
2023-02-26T16:03:38.491Z,43.15
2023-02-26T16:06:11.237Z,42.76
2023-02-26T16:08:38.928Z,43.09
2023-02-26T16:11:06.190Z,43.56
2023-02-26T16:13:37.730Z,43.57
2023-02-26T16:16:12.654Z,43.33
2023-02-26T16:18:41.403Z,43.30
2023-02-26T16:21:16.797Z,43.26
2023-02-26T16:23:50.946Z,42.80
2023-02-26T16:26:33.567Z,43.00
2023-02-26T16:29:27.822Z,42.62
2023-02-26T16:31:58.667Z,41.75
2023-02-26T16:34:44.159Z,41.73
2023-02-26T16:37:28.713Z,41.87
2023-02-26T16:40:08.959Z,42.75
2023-02-26T16:42:50.863Z,43.18
2023-02-26T16:45:37.585Z,43.11
2023-02-26T16:48:15.531Z,44.16
2023-02-26T16:50:42.680Z,44.17
2023-02-26T16:53:18.688Z,44.02
2023-02-26T16:55:55.529Z,43.63
2023-02-26T16:58:24.718Z,44.64
2023-02-26T17:01:04.376Z,44.46
2023-02-26T17:03:31.223Z,45.12
2023-02-26T17:06:08.150Z,45.24
2023-02-26T17:08:46.079Z,45.54
2023-02-26T17:11:30.584Z,45.71
2023-02-26T17:14:15.393Z,45.82
2023-02-26T17:16:41.939Z,46.10
2023-02-26T17:19:09.394Z,46.48
2023-02-26T17:21:44.384Z,46.54
2023-02-26T17:24:20.423Z,46.78
2023-02-26T17:26:48.227Z,46.99
2023-02-26T17:29:27.616Z,46.92
2023-02-26T17:31:54.164Z,47.23
2023-02-26T17:34:22.181Z,47.00
2023-02-26T17:36:49.753Z,47.29
2023-02-26T17:39:16.529Z,47.29
2023-02-26T17:41:44.868Z,47.44
2023-02-26T17:44:11.685Z,47.52
2023-02-26T17:46:38.315Z,47.64
2023-02-26T17:49:04.975Z,47.84
2023-02-26T17:51:31.585Z,47.75
2023-02-26T17:53:58.407Z,48.02
2023-02-26T17:56:32.662Z,48.29
2023-02-26T17:59:01.046Z,48.51
2023-02-26T18:01:30.747Z,48.35
2023-02-26T18:03:57.819Z,49.14
2023-02-26T18:06:25.313Z,48.79
2023-02-26T18:08:52.213Z,49.09
2023-02-26T18:11:20.318Z,48.91
2023-02-26T18:13:47.387Z,48.94
2023-02-26T18:16:23.002Z,48.93
2023-02-26T18:18:50.665Z,49.05
2023-02-26T18:21:17.210Z,49.24
2023-02-26T18:23:43.706Z,49.39
2023-02-26T18:26:11.390Z,49.59
2023-02-26T18:28:37.948Z,50.10
2023-02-26T18:31:08.655Z,50.14
2023-02-26T18:33:38.490Z,50.53
2023-02-26T18:36:05.989Z,50.51
2023-02-26T18:38:32.691Z,51.07
2023-02-26T18:41:01.814Z,50.79
2023-02-26T18:43:29.380Z,51.67
2023-02-26T18:45:57.160Z,51.54
2023-02-26T18:48:23.772Z,51.28
2023-02-26T18:50:50.395Z,51.29
2023-02-26T18:53:17.587Z,51.36
2023-02-26T18:55:44.777Z,51.82
2023-02-26T18:58:11.610Z,51.59
2023-02-26T19:00:38.137Z,52.11
2023-02-26T19:03:04.687Z,52.93
2023-02-26T19:05:31.340Z,52.51
2023-02-26T19:07:57.988Z,52.78
2023-02-26T19:10:24.620Z,52.64
2023-02-26T19:12:51.203Z,52.78
2023-02-26T19:15:18.422Z,52.84
2023-02-26T19:17:45.214Z,53.26
2023-02-26T19:20:13.514Z,52.99
2023-02-26T19:22:41.783Z,52.87
2023-02-26T19:25:10.053Z,53.31
2023-02-26T19:27:37.951Z,53.55
2023-02-26T19:30:06.454Z,53.69
2023-02-26T19:32:33.434Z,54.12
2023-02-26T19:35:00.202Z,54.38
2023-02-26T19:37:27.017Z,54.65
2023-02-26T19:39:53.491Z,54.87
2023-02-26T19:42:20.308Z,55.63
2023-02-26T19:44:46.814Z,55.56
2023-02-26T19:47:13.353Z,55.87
2023-02-26T19:49:39.859Z,56.42
2023-02-26T19:52:08.132Z,56.81
2023-02-26T19:54:34.639Z,56.34
2023-02-26T19:57:01.242Z,56.97
2023-02-26T19:59:28.114Z,56.26
2023-02-26T20:01:54.760Z,56.59
2023-02-26T20:04:21.425Z,56.96
2023-02-26T20:06:47.947Z,57.15
2023-02-26T20:09:14.615Z,56.75
2023-02-26T20:11:41.271Z,56.97
2023-02-26T20:14:08.045Z,56.48
2023-02-26T20:16:34.787Z,56.51
2023-02-26T20:19:01.719Z,56.87
2023-02-26T20:21:28.587Z,57.33
2023-02-26T20:23:56.672Z,56.42
2023-02-26T20:26:23.916Z,56.31
2023-02-26T20:28:50.408Z,56.59
2023-02-26T20:31:17.313Z,56.22
2023-02-26T20:33:43.956Z,56.28
2023-02-26T20:36:11.162Z,55.97
2023-02-26T20:38:37.963Z,56.46
2023-02-26T20:41:05.143Z,55.85
2023-02-26T20:43:32.683Z,55.64
2023-02-26T20:45:59.317Z,55.36
2023-02-26T20:48:26.419Z,56.28
2023-02-26T20:50:57.902Z,56.34
2023-02-26T20:53:24.410Z,55.76
2023-02-26T20:55:50.952Z,55.94
2023-02-26T20:58:17.433Z,56.41
2023-02-26T21:00:43.979Z,55.96
2023-02-26T21:03:10.650Z,55.64
2023-02-26T21:05:38.441Z,55.49
2023-02-26T21:08:05.649Z,55.77
2023-02-26T21:10:32.731Z,56.17
2023-02-26T21:12:59.748Z,56.94
2023-02-26T21:15:26.543Z,56.68
2023-02-26T21:17:53.811Z,57.00
2023-02-26T21:20:22.063Z,57.78
2023-02-26T21:22:49.570Z,57.83
2023-02-26T21:25:17.015Z,57.98
2023-02-26T21:27:43.937Z,58.56
2023-02-26T21:30:12.858Z,57.83
2023-02-26T21:32:40.471Z,57.91
2023-02-26T21:35:11.944Z,58.06
2023-02-26T21:37:38.971Z,58.36
2023-02-26T21:40:06.574Z,58.29
2023-02-26T21:42:33.396Z,58.54
2023-02-26T21:44:59.894Z,58.30
2023-02-26T21:47:26.454Z,58.81
2023-02-26T21:49:53.594Z,58.46
2023-02-26T21:52:20.111Z,58.62
2023-02-26T21:54:46.607Z,58.18
2023-02-26T21:57:13.074Z,57.83
2023-02-26T21:59:39.580Z,58.77
2023-02-26T22:02:06.162Z,58.54
2023-02-26T22:04:33.790Z,59.44
2023-02-26T22:07:00.623Z,59.41
2023-02-26T22:09:27.330Z,59.42
2023-02-26T22:11:53.837Z,60.29
2023-02-26T22:14:20.373Z,59.65
2023-02-26T22:16:47.199Z,59.87
2023-02-26T22:19:13.742Z,59.60
2023-02-26T22:21:40.269Z,59.74
2023-02-26T22:24:07.477Z,59.58
2023-02-26T22:26:34.129Z,59.83
2023-02-26T22:29:00.940Z,59.75
2023-02-26T22:31:29.640Z,60.16
2023-02-26T22:33:57.316Z,60.25
2023-02-26T22:36:25.556Z,59.92
2023-02-26T22:38:52.108Z,60.05
2023-02-26T22:41:18.848Z,59.30
2023-02-26T22:43:45.292Z,59.29
2023-02-26T22:46:11.907Z,58.89
2023-02-26T22:48:38.428Z,58.86
2023-02-26T22:51:05.255Z,58.85
2023-02-26T22:53:31.823Z,60.02
2023-02-26T22:55:58.444Z,59.52
2023-02-26T22:58:25.000Z,59.82
2023-02-26T23:01:02.557Z,59.96
2023-02-26T23:03:29.532Z,59.82
2023-02-26T23:05:57.285Z,59.64
2023-02-26T23:08:25.645Z,59.41
2023-02-26T23:10:58.331Z,58.93
2023-02-26T23:13:27.084Z,59.20
2023-02-26T23:15:53.620Z,60.10
2023-02-26T23:18:20.108Z,60.03
2023-02-26T23:20:48.418Z,60.04
2023-02-26T23:23:16.214Z,59.92
2023-02-26T23:25:43.925Z,60.40
2023-02-26T23:28:11.854Z,60.59
2023-02-26T23:30:39.437Z,60.31
2023-02-26T23:33:07.171Z,60.36
2023-02-26T23:35:44.860Z,59.86
2023-02-26T23:38:11.740Z,60.16
2023-02-26T23:40:38.220Z,60.08
2023-02-26T23:43:04.732Z,60.12
2023-02-26T23:45:31.326Z,60.69
2023-02-26T23:47:57.809Z,60.78
2023-02-26T23:50:24.360Z,60.63
2023-02-26T23:52:50.996Z,60.70
2023-02-26T23:55:23.148Z,60.79
2023-02-26T23:57:52.237Z,61.09
